createdAt,value
2023-07-31T00:00:43.550Z,100022.97
2023-07-31T00:03:52.309Z,100028.41
2023-07-31T00:07:07.609Z,100015.81
2023-07-31T00:10:09.930Z,100023.41
2023-07-31T00:13:24.550Z,100017.38
2023-07-31T00:16:39.687Z,100023.09
2023-07-31T00:19:41.941Z,100022.22
2023-07-31T00:22:56.563Z,100026.75
2023-07-31T00:26:05.142Z,100027.75
2023-07-31T00:29:13.575Z,100026.72
2023-07-31T00:32:22.176Z,100026.91
2023-07-31T00:35:36.591Z,100033.66
2023-07-31T00:38:51.559Z,100028.91
2023-07-31T00:41:53.401Z,100028.13
2023-07-31T00:45:08.568Z,100038.13
2023-07-31T00:48:17.566Z,100042.50
2023-07-31T00:51:28.827Z,100046.03
2023-07-31T00:54:50.610Z,100043.81
2023-07-31T00:57:59.167Z,100041.88
2023-07-31T01:01:07.625Z,100045.75
2023-07-31T01:04:23.618Z,100042.00
2023-07-31T01:07:40.683Z,100033.41
2023-07-31T01:11:03.622Z,100037.37
2023-07-31T01:14:12.112Z,100034.34
2023-07-31T01:17:20.740Z,100041.13
2023-07-31T01:20:31.647Z,100032.69
2023-07-31T01:24:09.611Z,100036.28
2023-07-31T01:27:21.569Z,100020.97
2023-07-31T01:30:34.425Z,100035.78
2023-07-31T01:33:44.567Z,100043.09
2023-07-31T01:36:53.296Z,100037.91
2023-07-31T01:40:08.600Z,100037.37
2023-07-31T01:43:23.585Z,100039.91
2023-07-31T01:46:32.178Z,100039.91
2023-07-31T01:49:46.613Z,100036.34
2023-07-31T01:52:48.511Z,100043.00
2023-07-31T01:56:03.598Z,100040.47
2023-07-31T01:59:05.551Z,100029.94
2023-07-31T02:02:20.653Z,100028.09
2023-07-31T02:05:29.587Z,100032.75
2023-07-31T02:08:38.119Z,100014.13
2023-07-31T02:11:52.625Z,100023.37
2023-07-31T02:15:16.343Z,100030.28
2023-07-31T02:18:26.811Z,100019.97
2023-07-31T02:21:41.641Z,100026.97
2023-07-31T02:24:50.211Z,100017.84
2023-07-31T02:28:04.628Z,100032.94
2023-07-31T02:31:06.504Z,100032.00
2023-07-31T02:34:21.579Z,100032.25
2023-07-31T02:37:30.633Z,100033.75
2023-07-31T02:40:47.588Z,100038.75
2023-07-31T02:43:55.620Z,100034.00
2023-07-31T02:47:10.602Z,100047.56
2023-07-31T02:50:12.499Z,100045.59
2023-07-31T02:53:27.592Z,100041.72
2023-07-31T02:56:35.641Z,100049.53
2023-07-31T02:59:50.587Z,100062.75
2023-07-31T03:02:59.195Z,100063.44
2023-07-31T03:06:07.638Z,100060.84
2023-07-31T03:09:16.153Z,100060.47
2023-07-31T03:12:24.664Z,100056.34
2023-07-31T03:15:33.228Z,100066.88
2023-07-31T03:18:41.652Z,100075.03
2023-07-31T03:21:50.187Z,100063.06
2023-07-31T03:24:58.600Z,100065.78
2023-07-31T03:28:07.293Z,100069.12
2023-07-31T03:31:22.715Z,100088.06
2023-07-31T03:34:37.648Z,100084.31
2023-07-31T03:37:52.620Z,100083.88
2023-07-31T03:41:00.625Z,100088.88
2023-07-31T03:44:15.599Z,100092.72
2023-07-31T03:50:56.623Z,100098.69
2023-07-31T03:54:04.899Z,100096.06
2023-07-31T03:57:19.640Z,100091.78
2023-07-31T04:00:34.658Z,100102.13
2023-07-31T04:03:43.156Z,100096.16
2023-07-31T04:06:51.631Z,100096.78
2023-07-31T04:10:01.306Z,100093.53
2023-07-31T04:13:16.625Z,100086.41
2023-07-31T04:16:18.516Z,100087.66
2023-07-31T04:19:33.639Z,100092.59
2023-07-31T04:22:41.656Z,100089.41
2023-07-31T04:25:50.262Z,100092.03
2023-07-31T04:28:58.637Z,100102.91
2023-07-31T04:32:07.478Z,100103.34
2023-07-31T04:35:22.631Z,100105.31
2023-07-31T04:38:30.645Z,100107.41
2023-07-31T04:41:45.640Z,100105.37
2023-07-31T04:44:54.644Z,100104.94
2023-07-31T04:48:03.332Z,100100.75
2023-07-31T04:51:18.633Z,100106.34
2023-07-31T04:54:33.940Z,100113.34
2023-07-31T04:57:42.656Z,100116.19
2023-07-31T05:00:51.185Z,100124.03
2023-07-31T05:04:05.696Z,100113.28
2023-07-31T05:07:20.654Z,100119.31
2023-07-31T05:10:35.626Z,100117.31
2023-07-31T05:13:44.202Z,100128.19
2023-07-31T05:16:58.689Z,100128.87
2023-07-31T05:20:00.658Z,100130.47
2023-07-31T05:23:15.676Z,100130.72
2023-07-31T05:26:19.334Z,100125.81
2023-07-31T05:29:34.631Z,100131.69
2023-07-31T05:32:49.653Z,100139.31
2023-07-31T05:35:51.668Z,100129.22
2023-07-31T05:39:06.664Z,100138.19
2023-07-31T05:42:15.213Z,100141.28
2023-07-31T05:45:23.684Z,100136.63
2023-07-31T05:48:38.642Z,100132.59
2023-07-31T05:51:46.651Z,100141.78
2023-07-31T05:55:08.654Z,100144.41
2023-07-31T05:58:23.653Z,100138.91
2023-07-31T06:01:32.380Z,100150.72
2023-07-31T06:04:47.988Z,100137.09
2023-07-31T06:07:56.705Z,100134.50
2023-07-31T06:11:05.318Z,100139.06
2023-07-31T06:14:20.666Z,100145.72
2023-07-31T06:17:35.650Z,100140.75
2023-07-31T06:20:44.262Z,100146.66
2023-07-31T06:23:52.680Z,100134.50
2023-07-31T06:27:07.642Z,100142.78
2023-07-31T06:30:16.663Z,100152.97
2023-07-31T06:33:25.823Z,100142.97
2023-07-31T06:36:34.663Z,100141.72
2023-07-31T06:39:43.230Z,100151.38
2023-07-31T06:42:58.670Z,100135.72
2023-07-31T06:46:14.738Z,100144.47
2023-07-31T06:49:23.204Z,100147.84
2023-07-31T06:52:31.667Z,100152.31
2023-07-31T06:55:53.717Z,100139.50
2023-07-31T06:59:08.640Z,100143.81
2023-07-31T07:02:23.767Z,100153.63
2023-07-31T07:05:32.323Z,100144.38
2023-07-31T07:08:40.678Z,100159.94
2023-07-31T07:11:49.277Z,100161.34
2023-07-31T07:15:03.728Z,100161.34
2023-07-31T07:18:12.399Z,100170.28
2023-07-31T07:21:27.712Z,100175.56
2023-07-31T07:24:29.921Z,100175.13
2023-07-31T07:27:44.722Z,100182.06
2023-07-31T07:30:46.633Z,100175.97
2023-07-31T07:34:01.762Z,100183.84
2023-07-31T07:37:10.673Z,100189.19
2023-07-31T07:40:19.394Z,100181.28
2023-07-31T07:43:34.698Z,100167.25
2023-07-31T07:46:36.709Z,100179.09
2023-07-31T07:49:53.314Z,100186.09
2023-07-31T07:53:01.680Z,100178.34
2023-07-31T07:56:17.016Z,100176.06
2023-07-31T07:59:31.657Z,100171.94
2023-07-31T08:02:39.719Z,100171.97
2023-07-31T08:05:54.669Z,100170.38
2023-07-31T08:08:56.951Z,100166.69
2023-07-31T08:12:13.666Z,100176.88
2023-07-31T08:15:23.716Z,100179.84
2023-07-31T08:18:32.740Z,100176.47
2023-07-31T08:21:48.732Z,100172.94
2023-07-31T08:25:03.737Z,100171.63
2023-07-31T08:28:13.785Z,100164.94
2023-07-31T08:31:22.288Z,100165.81
2023-07-31T08:34:30.696Z,100166.69
2023-07-31T08:37:41.243Z,100169.94
2023-07-31T08:40:49.692Z,100166.91
2023-07-31T08:44:05.688Z,100162.34
2023-07-31T08:47:23.715Z,100163.34
2023-07-31T08:50:32.719Z,100163.66
2023-07-31T08:53:54.681Z,100161.31
2023-07-31T08:57:10.703Z,100156.13
2023-07-31T09:00:19.611Z,100160.16
2023-07-31T09:03:35.785Z,100141.28
2023-07-31T09:06:45.775Z,100157.19
2023-07-31T09:10:00.710Z,100156.31
2023-07-31T09:13:12.771Z,100144.69
2023-07-31T09:16:35.810Z,100159.19
2023-07-31T09:19:37.825Z,100139.97
2023-07-31T09:22:53.703Z,100152.16
2023-07-31T09:26:08.757Z,100154.88
2023-07-31T09:29:27.757Z,100144.69
2023-07-31T09:32:42.777Z,100148.63
2023-07-31T09:35:44.984Z,100153.38
2023-07-31T09:38:59.753Z,100148.22
2023-07-31T09:42:08.723Z,100154.47
2023-07-31T09:45:32.102Z,100153.66
2023-07-31T09:48:48.539Z,100153.94
2023-07-31T09:52:03.736Z,100141.91
2023-07-31T09:55:18.732Z,100140.34
2023-07-31T09:58:30.348Z,100126.66
2023-07-31T10:01:47.719Z,100137.66
2023-07-31T10:04:57.745Z,100135.72
2023-07-31T10:08:14.725Z,100139.97
2023-07-31T10:11:28.600Z,100143.94
2023-07-31T10:14:44.712Z,100124.66
2023-07-31T10:17:57.847Z,100129.00
2023-07-31T10:21:13.761Z,100149.44
2023-07-31T10:24:29.813Z,100132.94
2023-07-31T10:27:31.678Z,100124.28
2023-07-31T10:30:47.733Z,100131.34
2023-07-31T10:33:59.123Z,100126.50
2023-07-31T10:37:32.736Z,100119.63
2023-07-31T10:40:54.735Z,100135.03
2023-07-31T10:44:05.753Z,100128.84
2023-07-31T10:47:22.902Z,100123.97
2023-07-31T10:50:39.862Z,100116.97
2023-07-31T10:53:55.714Z,100122.63
2023-07-31T10:57:26.812Z,100110.91
2023-07-31T11:00:45.802Z,100110.75
2023-07-31T11:03:54.823Z,100114.09
2023-07-31T11:07:03.644Z,100118.16
2023-07-31T11:10:18.731Z,100115.41
2023-07-31T11:13:33.789Z,100112.13
2023-07-31T11:16:35.736Z,100086.03
2023-07-31T11:19:53.759Z,100080.84
2023-07-31T11:23:02.757Z,100090.81
2023-07-31T11:26:18.771Z,100083.28
2023-07-31T11:29:28.925Z,100079.94
2023-07-31T11:32:37.771Z,100082.13
2023-07-31T11:35:48.547Z,100071.97
2023-07-31T11:38:56.756Z,100075.41
2023-07-31T11:42:12.787Z,100065.34
2023-07-31T11:45:27.868Z,100034.78
2023-07-31T11:48:38.774Z,100059.47
2023-07-31T11:51:47.568Z,100069.16
2023-07-31T11:54:55.778Z,100064.88
2023-07-31T11:58:17.760Z,100060.97
2023-07-31T12:01:28.486Z,100056.03
2023-07-31T12:04:37.800Z,100055.38
2023-07-31T12:07:48.078Z,100047.31
2023-07-31T12:10:58.752Z,100045.88
2023-07-31T12:14:13.770Z,100041.69
2023-07-31T12:17:16.050Z,100043.16
2023-07-31T12:20:30.830Z,100044.37
2023-07-31T12:23:40.774Z,100037.97
2023-07-31T12:26:56.831Z,100045.66
2023-07-31T12:30:06.128Z,100041.69
2023-07-31T12:33:22.793Z,100035.47
2023-07-31T12:36:38.111Z,100037.03
2023-07-31T12:39:46.801Z,100035.06
2023-07-31T12:42:55.414Z,100019.94
2023-07-31T12:46:09.887Z,100020.31
2023-07-31T12:49:18.301Z,100022.91
2023-07-31T12:52:32.756Z,100026.53
2023-07-31T12:55:41.115Z,100017.38
2023-07-31T12:58:55.837Z,100013.41
2023-07-31T13:02:03.801Z,100005.28
2023-07-31T13:05:12.461Z,99998.66
2023-07-31T13:08:28.803Z,100000.28
2023-07-31T13:11:37.482Z,99989.91
2023-07-31T13:14:54.155Z,100005.91
2023-07-31T13:18:02.750Z,100000.63
2023-07-31T13:21:10.865Z,99993.81
2023-07-31T13:24:19.320Z,99991.41
2023-07-31T13:27:33.807Z,99989.78
2023-07-31T13:30:42.425Z,99987.53
2023-07-31T13:33:56.877Z,99980.47
2023-07-31T13:37:11.812Z,99969.47
2023-07-31T13:40:13.687Z,99984.13
2023-07-31T13:43:28.859Z,99982.88
2023-07-31T13:46:37.629Z,99982.38
2023-07-31T13:49:52.852Z,99984.19
2023-07-31T13:53:01.348Z,99943.25
2023-07-31T13:56:09.804Z,99965.16
2023-07-31T13:59:18.403Z,99973.78
2023-07-31T14:02:32.884Z,99954.31
2023-07-31T14:05:34.880Z,99952.34
2023-07-31T14:08:49.795Z,99959.62
2023-07-31T14:11:51.716Z,99961.84
2023-07-31T14:15:06.834Z,99948.41
2023-07-31T14:18:21.967Z,99955.09
2023-07-31T14:21:23.957Z,99946.56
2023-07-31T14:24:39.948Z,99956.94
2023-07-31T14:27:54.823Z,99949.59
2023-07-31T14:31:02.843Z,99955.72
2023-07-31T14:34:11.419Z,99950.22
2023-07-31T14:37:25.842Z,99945.75
2023-07-31T14:40:34.558Z,99932.81
2023-07-31T14:43:42.824Z,99934.91
2023-07-31T14:46:51.450Z,99935.81
2023-07-31T14:49:59.909Z,99935.25
2023-07-31T14:53:09.277Z,99921.25
2023-07-31T14:56:30.874Z,99923.94
2023-07-31T14:59:39.459Z,99932.94
2023-07-31T15:02:48.929Z,99922.88
2023-07-31T15:06:03.845Z,99926.81
2023-07-31T15:09:05.782Z,99922.56
2023-07-31T15:12:20.848Z,99919.66
2023-07-31T15:15:29.856Z,99909.34
2023-07-31T15:18:38.454Z,99906.50
2023-07-31T15:21:52.830Z,99909.91
2023-07-31T15:24:54.682Z,99911.41
2023-07-31T15:28:09.857Z,99907.69
2023-07-31T15:31:17.855Z,99916.66
2023-07-31T15:34:26.498Z,99910.41
2023-07-31T15:37:41.860Z,99900.78
2023-07-31T15:40:56.919Z,99894.19
2023-07-31T15:43:58.915Z,99892.59
2023-07-31T15:47:13.821Z,99882.78
2023-07-31T15:50:15.704Z,99883.97
2023-07-31T15:53:30.846Z,99876.12
2023-07-31T15:56:52.844Z,99878.13
2023-07-31T16:00:01.424Z,99883.03
2023-07-31T16:03:15.916Z,99871.75
2023-07-31T16:06:24.452Z,99875.31
2023-07-31T16:09:38.851Z,99883.28
2023-07-31T16:12:40.797Z,99875.03
2023-07-31T16:15:55.896Z,99873.06
2023-07-31T16:18:57.877Z,99858.13
2023-07-31T16:22:12.881Z,99869.25
2023-07-31T16:25:27.868Z,99868.38
2023-07-31T16:28:42.879Z,99873.91
2023-07-31T16:31:57.821Z,99869.31
2023-07-31T16:35:07.754Z,99872.56
2023-07-31T16:38:15.915Z,99868.53
2023-07-31T16:41:30.886Z,99875.16
2023-07-31T16:44:39.763Z,99862.34
2023-07-31T16:47:57.919Z,99867.12
2023-07-31T16:50:59.958Z,99875.00
2023-07-31T16:54:14.880Z,99873.84
2023-07-31T16:57:36.868Z,99875.03
2023-07-31T17:00:45.458Z,99873.84
2023-07-31T17:03:54.053Z,99876.59
2023-07-31T17:07:08.869Z,99879.75
2023-07-31T17:10:16.952Z,99883.69
2023-07-31T17:13:25.460Z,99876.63
2023-07-31T17:16:33.900Z,99879.75
2023-07-31T17:19:42.561Z,99890.69
2023-07-31T17:22:57.861Z,99888.34
2023-07-31T17:25:59.780Z,99882.06
2023-07-31T17:29:14.893Z,99889.13
2023-07-31T17:32:17.362Z,99888.38
2023-07-31T17:35:35.873Z,99889.53
2023-07-31T17:38:38.024Z,99895.78
2023-07-31T17:41:52.888Z,99893.84
2023-07-31T17:45:00.869Z,99889.94
2023-07-31T17:48:15.904Z,99895.81
2023-07-31T17:51:24.877Z,99903.25
2023-07-31T17:54:39.881Z,99908.34
2023-07-31T17:57:54.886Z,99902.06
2023-07-31T18:01:03.970Z,99904.00
2023-07-31T18:04:21.917Z,99910.25
2023-07-31T18:07:36.934Z,99897.75
2023-07-31T18:10:51.885Z,99897.75
2023-07-31T18:14:08.767Z,99896.94
2023-07-31T18:17:12.345Z,99903.19
2023-07-31T18:20:27.912Z,99900.03
2023-07-31T18:23:35.901Z,99895.31
2023-07-31T18:26:44.420Z,99895.31
2023-07-31T18:29:52.919Z,99902.28
2023-07-31T18:33:07.975Z,99910.91
2023-07-31T18:36:16.670Z,99913.22
2023-07-31T18:39:24.951Z,99903.38
2023-07-31T18:42:33.896Z,99913.22
2023-07-31T18:45:48.920Z,99921.41
2023-07-31T18:48:57.729Z,99917.84
2023-07-31T18:52:12.916Z,99914.69
2023-07-31T18:55:21.926Z,99912.66
2023-07-31T18:58:30.466Z,99913.75
2023-07-31T19:01:45.927Z,99910.63
2023-07-31T19:04:54.916Z,99913.28
2023-07-31T19:08:09.970Z,99924.56
2023-07-31T19:11:31.362Z,99928.03
2023-07-31T19:14:47.926Z,99927.16
2023-07-31T19:17:58.343Z,99929.78
2023-07-31T19:21:12.923Z,99923.81
2023-07-31T19:24:15.048Z,99933.13
2023-07-31T19:27:29.919Z,99919.75
2023-07-31T19:30:39.017Z,99925.06
2023-07-31T19:33:48.926Z,99925.31
2023-07-31T19:36:57.503Z,99924.03
2023-07-31T19:40:12.948Z,99919.34
2023-07-31T19:43:27.933Z,99925.13
2023-07-31T19:46:36.844Z,99935.03
2023-07-31T19:49:45.968Z,99932.63
2023-07-31T19:53:01.943Z,99938.78
2023-07-31T19:56:10.718Z,99927.25
2023-07-31T19:59:25.948Z,99939.19
2023-07-31T20:02:34.891Z,99933.44
2023-07-31T20:05:49.940Z,99935.28
2023-07-31T20:08:58.925Z,99932.13
2023-07-31T20:12:08.794Z,99932.03
2023-07-31T20:15:26.928Z,99924.44
2023-07-31T20:18:35.988Z,99933.28
2023-07-31T20:21:44.936Z,99933.47
2023-07-31T20:24:53.682Z,99930.16
2023-07-31T20:28:09.944Z,99922.56
2023-07-31T20:31:17.972Z,99915.25
2023-07-31T20:34:26.788Z,99918.06
2023-07-31T20:37:34.949Z,99915.25
2023-07-31T20:40:45.706Z,99916.84
2023-07-31T20:44:01.963Z,99920.41
2023-07-31T20:47:10.926Z,99912.31
2023-07-31T20:50:19.547Z,99909.66
2023-07-31T20:53:33.945Z,99903.84
2023-07-31T20:56:49.454Z,99912.84
2023-07-31T21:00:03.934Z,99917.78
2023-07-31T21:03:12.985Z,99912.13
2023-07-31T21:06:27.939Z,99907.91
2023-07-31T21:09:36.540Z,99894.81
2023-07-31T21:12:51.020Z,99898.69
2023-07-31T21:16:04.977Z,99899.25
2023-07-31T21:19:13.497Z,99895.81
2023-07-31T21:22:27.975Z,99887.84
2023-07-31T21:25:37.283Z,99894.50
2023-07-31T21:28:51.953Z,99895.94
2023-07-31T21:32:07.054Z,99889.84
2023-07-31T21:35:09.015Z,99890.25
2023-07-31T21:38:23.936Z,99894.50
2023-07-31T21:41:32.604Z,99882.03
2023-07-31T21:44:40.953Z,99892.47
2023-07-31T21:47:56.021Z,99890.56
2023-07-31T21:51:11.003Z,99883.56
2023-07-31T21:54:25.969Z,99887.59
2023-07-31T21:57:41.259Z,99883.09
2023-07-31T22:00:49.989Z,99883.00
2023-07-31T22:04:04.965Z,99889.16
2023-07-31T22:07:13.559Z,99880.00
2023-07-31T22:10:21.967Z,99889.38
2023-07-31T22:13:31.286Z,99877.13
2023-07-31T22:16:40.259Z,99873.88
2023-07-31T22:19:54.965Z,99861.78
2023-07-31T22:22:56.836Z,99863.22
2023-07-31T22:26:11.989Z,99871.53
2023-07-31T22:29:26.960Z,99863.53
2023-07-31T22:32:41.990Z,99861.72
2023-07-31T22:35:49.971Z,99863.09
2023-07-31T22:38:58.535Z,99862.66
2023-07-31T22:42:06.992Z,99857.25
2023-07-31T22:45:21.996Z,99856.87
2023-07-31T22:48:23.831Z,99863.31
2023-07-31T22:51:38.958Z,99859.69
2023-07-31T22:54:46.988Z,99861.44
2023-07-31T22:58:08.963Z,99856.00
2023-07-31T23:01:16.999Z,99856.97
2023-07-31T23:04:32.804Z,99856.00
2023-07-31T23:07:34.840Z,99847.63
2023-07-31T23:10:54.954Z,99845.78
2023-07-31T23:14:03.007Z,99829.47
2023-07-31T23:17:17.968Z,99847.53
2023-07-31T23:20:19.903Z,99837.22
2023-07-31T23:23:34.978Z,99834.22
2023-07-31T23:26:49.990Z,99835.13
2023-07-31T23:29:51.846Z,99831.25
2023-07-31T23:33:06.991Z,99824.25
2023-07-31T23:36:18.969Z,99807.06
2023-07-31T23:39:34.013Z,99810.06
2023-07-31T23:42:42.578Z,99806.12
2023-07-31T23:45:51.046Z,99800.44
2023-07-31T23:49:05.980Z,99801.16
2023-07-31T23:52:08.833Z,99794.38
2023-07-31T23:55:24.978Z,99788.63
2023-07-31T23:58:40.000Z,99798.16
